Latest Coastal Weather Observations for Coconut Island

IDQ60701

Issued at 7:45 pm EST Friday 28 November 2014 (issued every 10 minutes, with the page automatically refreshed every 10 minutes)

About coastal observations | Map of coastal stations | Coastal observations for QLD | Marine services | Other Formats
Station Details ID: 027054 Name: COCONUT ISLAND Lat: -10.05 Lon: 143.07 Height: 3.5 m
Data from the previous 72 hours. | See also: Recent months at Coconut Island
Date/Time
EST
Temp

°C
Wind Pressure Rain
since 9am
mm
Weather Cloud Vis
km
Sea
Height
m
Swell
Dir
 
Speed
knots
Gust
knots
hPa Trend Height
m
Period
s
Dir
28/07:30pm 27.4 SE 3 7 1008.4 - 0.0 - - - - - - -
28/07:00pm 27.5 SE 3 5 1008.1 - 0.0 - - - - - - -
28/06:30pm 28.0 SE 2 5 1008.0 - 0.0 - - - - - - -
28/06:00pm 28.5 SE 3 5 1007.8 - 0.0 - - - - - - -
28/05:30pm 28.9 SSE 2 4 1007.7 - 0.0 - - - - - - -
28/05:00pm 29.4 SSE 3 4 1007.6 - 0.0 - - - - - - -
28/04:30pm 29.8 SE 2 4 1007.4 - 0.0 - - - - - - -
28/04:00pm 30.7 SE 2 5 1007.4 - 0.0 - - - - - - -
28/03:30pm 31.9 SE 2 7 1007.5 - 0.0 - - - - - - -
28/03:00pm 32.8 SE 3 5 1007.7 - 0.0 - - - - - - -
28/02:30pm 33.2 SE 3 8 1007.9 - 0.0 - - - - - - -
28/02:00pm 33.8 SE 3 7 1008.2 - 0.0 - - - - - - -
28/01:30pm 33.9 SE 3 6 1008.6 - 0.0 - - - - - - -
28/01:00pm 31.7 ESE 5 8 1008.8 - 0.0 - - - - - - -
28/12:30pm 32.5 SE 1 3 1009.3 - 0.0 - - - - - - -
28/12:00pm 33.2 SE 2 6 1009.6 - 0.0 - - - - - - -
28/11:30am 33.5 SE 3 7 1009.9 - 0.0 - - - - - - -
28/11:00am 32.7 SE 4 9 1010.3 - 0.0 - - - - - - -
28/10:30am 31.2 ESE 4 8 1010.4 - 0.0 - - - - - - -
28/10:00am 31.4 SE 3 6 1010.7 - 0.0 - - - - - - -
28/09:30am 31.4 ESE 5 9 1010.8 - 0.0 - - - - - - -
28/09:00am 31.0 ESE 4 8 1010.7 - 0.0 - - - - - - -
28/08:30am 30.2 ESE 4 8 1010.6 - 0.0 - - - - - - -
28/08:00am 27.7 ESE 3 6 1010.4 - 0.0 - - - - - - -
28/07:30am 27.4 ESE 4 8 1010.1 - 0.0 - - - - - - -
28/07:00am 26.9 ESE 4 7 1009.8 - 0.0 - - - - - - -
28/06:30am 26.0 ESE 3 6 1009.5 - 0.0 - - - - - - -
28/06:00am 25.8 ESE 5 8 1009.2 - 0.0 - - - - - - -
28/05:30am 25.8 ESE 5 9 1008.9 - 0.0 - - - - - - -
28/05:00am 25.7 ESE 5 8 1008.5 - 0.0 - - - - - - -
28/04:30am 25.6 SE 3 6 1008.2 - 0.0 - - - - - - -
28/04:00am 25.6 SE 2 6 1008.0 - 0.0 - - - - - - -
28/03:30am 25.7 SE 2 5 1007.9 - 0.0 - - - - - - -
28/03:00am 25.8 SSE 3 4 1008.0 - 0.0 - - - - - - -
28/02:30am 25.7 SE 2 5 1008.1 - 0.0 - - - - - - -
28/02:00am 26.0 ESE 4 6 1008.3 - 0.0 - - - - - - -
28/01:30am 25.9 ESE 3 6 1008.5 - 0.0 - - - - - - -
28/01:00am 25.8 SE 3 8 1008.6 - 0.0 - - - - - - -
28/12:30am 25.8 SE 3 9 1009.1 - 0.0 - - - - - - -
28/12:00am 25.8 SE 3 9 1009.3 - 0.0 - - - - - - -
 
Date/Time
EST
Temp

°C
Wind Pressure Rain
since 9am
mm
Weather Cloud Vis
km
Sea
Height
m
Swell
Dir
 
Speed
knots
Gust
knots
hPa Trend Height
m
Period
s
Dir
27/11:30pm 26.0 SE 4 8 1009.5 - 0.0 - - - - - - -
27/11:00pm 26.2 SE 3 7 1009.7 - 0.0 - - - - - - -
27/10:30pm 26.4 SE 3 8 1009.6 - 0.0 - - - - - - -
27/10:00pm 26.7 SE 4 6 1009.7 - 0.0 - - - - - - -
27/09:30pm 27.0 SE 4 7 1009.5 - 0.0 - - - - - - -
27/09:00pm 27.2 SSE 4 8 1009.4 - 0.0 - - - - - - -
27/08:30pm 27.2 SSE 4 5 1009.2 - 0.0 - - - - - - -
27/08:00pm 27.5 SE 3 6 1009.0 - 0.0 - - - - - - -
27/07:30pm 27.6 SSE 5 7 1008.6 - 0.0 - - - - - - -
27/07:00pm 27.8 SSE 4 6 1008.1 - 0.0 - - - - - - -
27/06:30pm 28.2 SSE 5 7 1007.8 - 0.0 - - - - - - -
27/06:00pm 28.6 SSE 5 7 1007.6 - 0.0 - - - - - - -
27/05:30pm 29.3 SSE 5 6 1007.5 - 0.0 - - - - - - -
27/05:00pm 30.6 SSE 4 5 1007.4 - 0.0 - - - - - - -
27/04:30pm 31.1 SSE 4 6 1007.2 - 0.0 - - - - - - -
27/04:00pm 31.4 SSE 4 7 1007.2 - 0.0 - - - - - - -
27/03:30pm 31.3 SE 4 7 1006.9 - 0.0 - - - - - - -
27/03:00pm 31.4 SSE 4 6 1007.0 - 0.0 - - - - - - -
27/02:30pm 32.7 SSE 4 6 1007.3 - 0.0 - - - - - - -
27/02:00pm 31.0 SE 4 8 1007.5 - 0.0 - - - - - - -
27/01:30pm 31.9 SSE 5 8 1007.9 - 0.0 - - - - - - -
27/01:00pm 32.6 SE 5 9 1008.1 - 0.0 - - - - - - -
27/12:30pm 31.7 SE 4 6 1008.5 - 0.0 - - - - - - -
27/12:00pm 33.6 SE 4 8 1008.8 - 0.0 - - - - - - -
27/11:30am 32.2 ESE 6 13 1009.1 - 0.0 - - - - - - -
27/11:00am 32.8 ESE 8 14 1009.3 - 0.0 - - - - - - -
27/10:30am 32.5 SE 5 12 1009.3 - 0.0 - - - - - - -
27/10:00am 32.0 ESE 6 13 1009.5 - 0.0 - - - - - - -
27/09:30am 31.6 ESE 8 12 1009.5 - 0.0 - - - - - - -
27/09:00am 30.9 ESE 7 14 1009.1 - 0.0 - - - - - - -
27/08:30am 30.1 ESE 6 11 1008.8 - 0.0 - - - - - - -
27/08:00am 29.1 ESE 7 12 1008.9 - 0.0 - - - - - - -
27/07:30am 27.9 SE 7 12 1008.6 - 0.0 - - - - - - -
27/07:00am 27.3 ESE 7 12 1008.4 - 0.0 - - - - - - -
27/06:30am 26.8 ESE 8 13 1008.2 - 0.0 - - - - - - -
27/06:00am 26.4 SE 5 10 1007.9 - 0.0 - - - - - - -
27/05:30am 26.4 SE 7 13 1007.3 - 0.0 - - - - - - -
27/05:00am 26.5 SE 6 12 1007.0 - 0.0 - - - - - - -
27/04:30am 26.6 SE 5 10 1007.0 - 0.0 - - - - - - -
27/04:00am 26.6 ESE 7 13 1007.2 - 0.0 - - - - - - -
27/03:30am 26.7 ESE 6 11 1007.0 - 0.0 - - - - - - -
27/03:00am 26.7 SE 4 8 1007.1 - 0.0 - - - - - - -
27/02:30am 26.8 ESE 6 12 1006.9 - 0.0 - - - - - - -
27/02:00am 26.8 SE 5 10 1006.9 - 0.0 - - - - - - -
27/01:30am 26.9 SE 6 11 1007.2 - 0.0 - - - - - - -
27/01:00am 27.0 SE 6 11 1007.5 - 0.0 - - - - - - -
27/12:30am 27.1 SE 4 10 1007.7 - 0.0 - - - - - - -
27/12:00am 27.1 SE 5 10 1007.9 - 0.0 - - - - - - -
 
Date/Time
EST
Temp

°C
Wind Pressure Rain
since 9am
mm
Weather Cloud Vis
km
Sea
Height
m
Swell
Dir
 
Speed
knots
Gust
knots
hPa Trend Height
m
Period
s
Dir
26/11:30pm 27.1 SE 5 10 1008.2 - 0.0 - - - - - - -
26/11:00pm 27.1 SE 4 8 1008.3 - 0.0 - - - - - - -
26/10:30pm 27.2 SE 5 9 1008.2 - 0.0 - - - - - - -
26/10:00pm 27.3 SE 5 8 1008.1 - 0.0 - - - - - - -
26/09:30pm 27.3 SE 4 9 1008.1 - 0.0 - - - - - - -
26/09:00pm 27.4 SE 4 8 1007.9 - 0.0 - - - - - - -
26/08:30pm 27.5 SE 5 8 1007.7 - 0.0 - - - - - - -
26/08:00pm 27.6 SE 4 6 1007.4 - 0.0 - - - - - - -
26/07:30pm 27.8 SE 4 8 1007.2 - 0.0 - - - - - - -
26/07:00pm 28.0 SE 5 9 1006.7 - 0.0 - - - - - - -
26/06:30pm 28.4 SSE 5 7 1006.2 - 0.0 - - - - - - -
26/06:00pm 28.8 SE 4 8 1005.9 - 0.0 - - - - - - -
26/05:30pm 29.5 SE 4 8 1005.7 - 0.0 - - - - - - -
26/05:00pm 30.3 SSE 5 7 1005.5 - 0.0 - - - - - - -
26/04:30pm 30.5 SE 4 8 1005.5 - 0.0 - - - - - - -
26/04:00pm 30.8 SE 4 8 1005.5 - 0.0 - - - - - - -
26/03:30pm 31.0 SE 4 8 1005.5 - 0.0 - - - - - - -
26/03:00pm 30.9 SE 4 10 1005.7 - 0.0 - - - - - - -
26/02:30pm 32.5 ESE 6 11 1006.1 - 0.0 - - - - - - -
26/02:00pm 31.1 SE 5 9 1006.4 - 0.0 - - - - - - -
26/01:30pm 31.7 ESE 5 9 1006.8 - 0.0 - - - - - - -
26/01:00pm 32.5 ESE 7 11 1007.0 - 0.0 - - - - - - -
26/12:30pm 31.7 ESE 7 11 1007.3 - 0.0 - - - - - - -
26/12:00pm 31.8 E 8 13 1007.6 - 0.0 - - - - - - -
26/11:30am 31.5 ESE 6 12 1008.1 - 0.0 - - - - - - -
26/11:00am 33.1 ESE 5 11 1008.4 - 0.0 - - - - - - -
26/10:30am 32.4 ESE 6 10 1008.6 - 0.0 - - - - - - -
26/10:00am 32.1 ESE 8 13 1008.7 - 0.0 - - - - - - -
26/09:30am 31.8 ESE 7 13 1008.7 - 0.0 - - - - - - -
26/09:00am 30.6 ESE 7 14 1008.6 - 0.0 - - - - - - -
26/08:30am 29.5 ESE 7 10 1008.5 - 0.0 - - - - - - -
26/08:00am 28.8 ESE 6 11 1008.5 - 0.0 - - - - - - -
26/07:30am 28.0 ESE 6 10 1007.9 - 0.0 - - - - - - -
26/07:00am 27.4 ESE 5 10 1007.8 - 0.0 - - - - - - -
26/06:30am 27.1 ESE 6 11 1007.4 - 0.0 - - - - - - -
26/06:00am 27.0 ESE 6 11 1006.8 - 0.0 - - - - - - -
26/05:30am 26.9 ESE 6 10 1006.8 - 0.0 - - - - - - -
26/05:00am 26.9 SE 4 8 1006.4 - 0.0 - - - - - - -
26/04:30am 26.8 SE 5 9 1006.1 - 0.0 - - - - - - -
26/04:00am 26.8 SE 4 9 1005.8 - 0.0 - - - - - - -
26/03:30am 27.0 SE 4 9 1005.8 - 0.0 - - - - - - -
26/03:00am 27.0 SE 4 6 1005.8 - 0.0 - - - - - - -
26/02:30am 27.1 SE 4 9 1006.0 - 0.0 - - - - - - -
26/02:00am 27.1 SE 4 11 1006.3 - 0.0 - - - - - - -
26/01:30am 27.2 SE 5 10 1006.6 - 0.0 - - - - - - -
26/01:00am 27.3 SE 6 13 1007.1 - 0.0 - - - - - - -
26/12:30am 27.3 SE 4 11 1007.5 - 0.0 - - - - - - -
26/12:00am 27.3 SE 5 10 1007.7 - 0.0 - - - - - - -
 
Date/Time
EST
Temp

°C
Wind Pressure Rain
since 9am
mm
Weather Cloud Vis
km
Sea
Height
m
Swell
Dir
 
Speed
knots
Gust
knots
hPa Trend Height
m
Period
s
Dir
25/11:30pm 27.4 SE 5 11 1008.2 - 0.0 - - - - - - -
25/11:00pm 27.3 SE 5 11 1008.4 - 0.0 - - - - - - -
25/10:30pm 27.2 SE 5 9 1008.2 - 0.0 - - - - - - -
25/10:00pm 27.2 SE 5 9 1008.1 - 0.0 - - - - - - -
25/09:30pm 27.3 SE 5 11 1008.0 - 0.0 - - - - - - -
25/09:00pm 27.2 SE 5 9 1007.9 - 0.0 - - - - - - -
25/08:30pm 27.2 SE 4 9 1007.6 - 0.0 - - - - - - -
25/08:00pm 27.3 SE 4 8 1007.6 - 0.0 - - - - - - -

Other Formats:

Comma delimited format used in spreadsheet applications
http://www.bom.gov.au/fwo/IDQ60701/IDQ60701.94182.axf

JavaScript Object Notation format (JSON) in row-major order
http://www.bom.gov.au/fwo/IDQ60701/IDQ60701.94182.json